Sim-Planet VA

Sim-Planet Nouvel Horizon. By: Anthony Pay
Since 2020.




 METAR ET TAF INFORMATION
METAR FOR OTHH
ADDS - METARS form results

(2125 UTC 28 November 2021)
Data provider http://aviationweather.gov/metar/data/
 
METAR text: OTHH 282100Z AUTO 28006KT CAVOK 21/10 Q1016 NOSIG
Conditions at: OTHH (DOHA HAMAD INTL , QA) observed 2100 UTC 28 November 2021
Temperature: 21.0°C (70°F)
Dewpoint: 10.0°C (50°F) [RH = 49%]
Pressure (altimeter): 30.00 inches Hg (1016.0 mb)
Winds: from the W (280 degrees) at 7 MPH (6 knots; 3.1 m/s)
Visibility: 6 or more miles (10+ km)
Ceiling: ceiling and visibility are OK
Clouds: unknown
Weather: no significant weather observed at this time

Forecast for: OTHH (DOHA HAMAD INTL , QA)
Text: TAF OTHH 281700Z 2818/2924 30012KT CAVOK
Forecast period: 1800 UTC 28 November 2021 to 0000 UTC 30 November 2021
Forecast type: FROM: standard forecast or significant change
Winds: from the WNW (300 degrees) at 14 MPH (12 knots; 6.2 m/s)
Visibility: 6 or more miles (10+ km)
Ceiling: unknown
Clouds: missing
Weather: NSW  (no significant weather)

 AÉROPORT DE AÉROPORT

 INFORMATIONS DE PISTE

 AÉROPORT FRÉQUENCES

 SIDA DE NAVIGATION

Nos Partenaires